createdAt,value
2022-08-19T00:01:38.991Z,20.44
2022-08-19T00:04:10.595Z,20.44
2022-08-19T00:06:40.798Z,20.42
2022-08-19T00:09:12.394Z,20.41
2022-08-19T00:11:40.862Z,20.42
2022-08-19T00:14:10.936Z,20.45
2022-08-19T00:16:40.562Z,20.47
2022-08-19T00:19:09.524Z,20.49
2022-08-19T00:21:41.008Z,20.48
2022-08-19T00:24:11.435Z,20.46
2022-08-19T00:26:40.000Z,20.42
2022-08-19T00:29:10.493Z,20.38
2022-08-19T00:31:39.284Z,20.36
2022-08-19T00:34:07.327Z,20.35
2022-08-19T00:36:35.585Z,20.33
2022-08-19T00:39:04.303Z,20.28
2022-08-19T00:41:32.389Z,20.22
2022-08-19T00:44:07.226Z,20.15
2022-08-19T00:46:37.892Z,20.10
2022-08-19T00:49:51.774Z,20.08
2022-08-19T00:52:26.316Z,20.07
2022-08-19T00:54:54.441Z,20.07
2022-08-19T00:57:28.092Z,20.07
2022-08-19T01:00:02.460Z,20.03
2022-08-19T01:02:33.397Z,19.97
2022-08-19T01:05:06.037Z,19.90
2022-08-19T01:07:38.341Z,19.84
2022-08-19T01:10:09.760Z,19.79
2022-08-19T01:12:39.102Z,19.74
2022-08-19T01:15:10.346Z,19.70
2022-08-19T01:17:40.944Z,19.68
2022-08-19T01:20:17.711Z,19.68
2022-08-19T01:22:55.628Z,19.71
2022-08-19T01:25:33.561Z,19.74
2022-08-19T01:28:10.712Z,19.76
2022-08-19T01:30:39.362Z,19.76
2022-08-19T01:33:13.575Z,19.74
2022-08-19T01:35:42.677Z,19.73
2022-08-19T01:38:32.719Z,19.69
2022-08-19T01:41:01.007Z,19.65
2022-08-19T01:43:30.552Z,19.59
2022-08-19T01:45:58.584Z,19.57
2022-08-19T01:48:26.625Z,19.56
2022-08-19T01:50:54.679Z,19.53
2022-08-19T01:53:22.721Z,19.51
2022-08-19T01:55:54.779Z,19.49
2022-08-19T01:58:30.495Z,19.40
2022-08-19T02:00:59.373Z,19.34
2022-08-19T02:03:27.568Z,19.32
2022-08-19T02:05:58.704Z,19.30
2022-08-19T02:08:28.779Z,19.27
2022-08-19T02:10:57.594Z,19.20
2022-08-19T02:13:28.780Z,19.15
2022-08-19T02:15:56.836Z,19.13
2022-08-19T02:18:28.090Z,19.13
2022-08-19T02:20:56.313Z,19.06
2022-08-19T02:23:24.384Z,18.98
2022-08-19T02:25:52.831Z,18.95
2022-08-19T02:28:20.920Z,18.94
2022-08-19T02:30:49.283Z,18.95
2022-08-19T02:33:18.279Z,18.95
2022-08-19T02:35:47.428Z,18.96
2022-08-19T02:38:28.579Z,18.96
2022-08-19T02:41:02.498Z,18.94
2022-08-19T02:43:34.406Z,18.89
2022-08-19T02:46:12.864Z,18.86
2022-08-19T02:48:41.051Z,18.86
2022-08-19T02:51:09.056Z,18.83
2022-08-19T02:53:38.368Z,18.81
2022-08-19T02:56:09.113Z,18.79
2022-08-19T02:58:37.045Z,18.79
2022-08-19T03:01:06.966Z,18.76
2022-08-19T03:03:35.096Z,18.73
2022-08-19T03:06:09.563Z,18.72
2022-08-19T03:08:38.149Z,18.70
2022-08-19T03:11:06.620Z,18.64
2022-08-19T03:13:34.684Z,18.59
2022-08-19T03:16:06.501Z,18.56
2022-08-19T03:18:34.866Z,18.55
2022-08-19T03:21:04.212Z,18.54
2022-08-19T03:23:32.567Z,18.53
2022-08-19T03:26:15.895Z,18.49
2022-08-19T03:28:51.615Z,18.45
2022-08-19T03:31:43.388Z,18.42
2022-08-19T03:34:19.418Z,18.38
2022-08-19T03:36:48.709Z,18.33
2022-08-19T03:39:18.026Z,18.31
2022-08-19T03:41:48.428Z,18.33
2022-08-19T03:44:23.232Z,18.34
2022-08-19T03:46:56.225Z,18.31
2022-08-19T03:49:28.397Z,18.27
2022-08-19T03:52:01.486Z,18.26
2022-08-19T03:54:30.269Z,18.27
2022-08-19T03:56:58.878Z,18.28
2022-08-19T03:59:33.674Z,18.27
2022-08-19T04:02:06.928Z,18.29
2022-08-19T04:04:35.025Z,18.34
2022-08-19T04:07:03.453Z,18.40
2022-08-19T04:09:31.885Z,18.46
2022-08-19T04:12:00.048Z,18.49
2022-08-19T04:14:34.842Z,18.55
2022-08-19T04:17:06.108Z,18.61
2022-08-19T04:19:36.625Z,18.64
2022-08-19T04:22:05.635Z,18.66
2022-08-19T04:24:36.111Z,18.69
2022-08-19T04:27:05.198Z,18.72
2022-08-19T04:29:34.299Z,18.76
2022-08-19T04:32:09.247Z,18.77
2022-08-19T04:35:02.765Z,18.77
2022-08-19T04:37:29.543Z,18.79
2022-08-19T04:40:25.143Z,18.79
2022-08-19T04:42:54.886Z,18.81
2022-08-19T04:45:23.511Z,18.85
2022-08-19T04:47:57.945Z,18.90
2022-08-19T04:50:27.969Z,18.94
2022-08-19T04:52:56.850Z,18.96
2022-08-19T04:55:28.553Z,19.01
2022-08-19T04:57:56.517Z,19.06
2022-08-19T05:00:24.530Z,19.13
2022-08-19T05:02:52.783Z,19.18
2022-08-19T05:05:22.047Z,19.23
2022-08-19T05:07:50.180Z,19.30
2022-08-19T05:10:18.304Z,19.36
2022-08-19T05:12:46.393Z,19.41
2022-08-19T05:15:14.526Z,19.44
2022-08-19T05:18:02.424Z,19.48
2022-08-19T05:20:49.032Z,19.54
2022-08-19T05:23:21.920Z,19.59
2022-08-19T05:25:53.861Z,19.65
2022-08-19T05:28:21.846Z,19.71
2022-08-19T05:30:51.943Z,19.75
2022-08-19T05:33:20.423Z,19.79
2022-08-19T05:35:50.590Z,19.80
2022-08-19T05:38:18.905Z,19.83
2022-08-19T05:40:48.191Z,19.87
2022-08-19T05:43:17.065Z,19.94
2022-08-19T05:45:45.299Z,19.98
2022-08-19T05:48:14.404Z,20.03
2022-08-19T05:50:43.409Z,20.06
2022-08-19T05:53:11.467Z,20.14
2022-08-19T05:55:39.954Z,20.20
2022-08-19T05:58:10.733Z,20.26
2022-08-19T06:00:38.891Z,20.35
2022-08-19T06:03:12.885Z,20.43
2022-08-19T06:05:51.581Z,20.51
2022-08-19T06:08:34.109Z,20.62
2022-08-19T06:11:36.468Z,20.70
2022-08-19T06:14:16.479Z,20.78
2022-08-19T06:16:46.405Z,20.87
2022-08-19T06:19:18.261Z,20.96
2022-08-19T06:21:49.185Z,21.07
2022-08-19T06:24:20.299Z,21.19
2022-08-19T06:26:49.747Z,21.29
2022-08-19T06:29:23.770Z,21.37
2022-08-19T06:31:55.529Z,21.42
2022-08-19T06:34:24.462Z,21.50
2022-08-19T06:36:53.881Z,21.59
2022-08-19T06:39:25.646Z,21.69
2022-08-19T06:41:58.921Z,21.78
2022-08-19T06:44:39.517Z,21.88
2022-08-19T06:47:23.438Z,21.98
2022-08-19T06:50:05.320Z,22.07
2022-08-19T06:52:36.839Z,22.14
2022-08-19T06:55:07.351Z,22.19
2022-08-19T06:57:35.579Z,22.25
2022-08-19T07:00:09.733Z,22.31
2022-08-19T07:02:48.052Z,22.41
2022-08-19T07:05:23.910Z,22.52
2022-08-19T07:07:52.010Z,22.61
2022-08-19T07:10:20.711Z,22.70
2022-08-19T07:12:50.199Z,22.79
2022-08-19T07:15:18.899Z,22.88
2022-08-19T07:17:52.390Z,22.97
2022-08-19T07:20:21.025Z,23.07
2022-08-19T07:22:49.305Z,23.17
2022-08-19T07:25:19.581Z,23.26
2022-08-19T07:27:54.369Z,23.37
2022-08-19T07:30:26.221Z,23.49
2022-08-19T07:32:54.832Z,23.62
2022-08-19T07:35:24.766Z,23.77
2022-08-19T07:37:54.175Z,23.91
2022-08-19T07:40:22.738Z,24.03
2022-08-19T07:42:50.740Z,24.16
2022-08-19T07:45:18.924Z,24.29
2022-08-19T07:47:51.073Z,24.44
2022-08-19T07:50:21.749Z,24.57
2022-08-19T07:52:51.103Z,24.75
2022-08-19T07:55:40.044Z,24.91
2022-08-19T07:58:09.261Z,25.10
2022-08-19T08:00:37.425Z,25.29
2022-08-19T08:03:05.469Z,25.46
2022-08-19T08:05:52.332Z,25.62
2022-08-19T08:08:44.253Z,25.81
2022-08-19T08:11:24.056Z,25.99
2022-08-19T08:14:00.834Z,26.17
2022-08-19T08:16:39.652Z,26.34
2022-08-19T08:19:20.492Z,26.49
2022-08-19T08:21:56.705Z,26.62
2022-08-19T08:24:28.727Z,26.75
2022-08-19T08:26:59.739Z,26.89
2022-08-19T08:29:34.827Z,27.00
2022-08-19T08:32:14.109Z,27.11
2022-08-19T08:34:43.933Z,27.22
2022-08-19T08:37:12.139Z,27.34
2022-08-19T08:39:40.414Z,27.46
2022-08-19T08:42:21.398Z,27.60
2022-08-19T08:45:17.737Z,27.72
2022-08-19T08:47:51.271Z,27.89
2022-08-19T08:50:37.605Z,28.05
2022-08-19T08:53:09.387Z,28.22
2022-08-19T08:55:37.849Z,28.38
2022-08-19T08:58:15.277Z,28.49
2022-08-19T09:00:48.688Z,28.61
2022-08-19T09:03:27.487Z,28.75
2022-08-19T09:06:11.936Z,28.90
2022-08-19T09:08:49.410Z,29.04
2022-08-19T09:11:49.028Z,29.21
2022-08-19T09:14:50.264Z,29.38
2022-08-19T09:17:29.276Z,29.51
2022-08-19T09:20:08.972Z,29.60
2022-08-19T09:22:46.149Z,29.74
2022-08-19T09:25:18.258Z,29.85
2022-08-19T09:28:02.490Z,29.91
2022-08-19T09:30:35.658Z,29.99
2022-08-19T09:33:03.830Z,30.06
2022-08-19T09:35:32.278Z,30.14
2022-08-19T09:38:18.433Z,30.24
2022-08-19T09:40:46.475Z,30.31
2022-08-19T09:43:14.440Z,30.42
2022-08-19T09:45:42.492Z,30.55
2022-08-19T09:48:11.793Z,30.63
2022-08-19T09:50:51.463Z,30.71
2022-08-19T09:53:25.603Z,30.78
2022-08-19T09:55:56.571Z,30.82
2022-08-19T09:58:28.686Z,30.84
2022-08-19T10:00:59.576Z,30.92
2022-08-19T10:03:30.194Z,31.06
2022-08-19T10:06:01.450Z,31.19
2022-08-19T10:08:35.488Z,31.36
2022-08-19T10:11:27.941Z,31.45
2022-08-19T10:13:53.746Z,31.55
2022-08-19T10:16:29.184Z,31.58
2022-08-19T10:19:00.394Z,31.59
2022-08-19T10:21:35.440Z,31.66
2022-08-19T10:24:07.074Z,31.82
2022-08-19T10:26:40.407Z,32.02
2022-08-19T10:29:09.248Z,32.13
2022-08-19T10:32:00.737Z,32.27
2022-08-19T10:34:28.357Z,32.54
2022-08-19T10:37:01.112Z,32.75
2022-08-19T10:39:32.788Z,32.90
2022-08-19T10:42:11.755Z,33.07
2022-08-19T10:44:40.592Z,33.20
2022-08-19T10:47:17.651Z,33.36
2022-08-19T10:50:13.430Z,33.51
2022-08-19T10:52:49.530Z,33.60
2022-08-19T10:55:41.421Z,33.75
2022-08-19T10:58:18.302Z,33.96
2022-08-19T11:00:56.816Z,34.14
2022-08-19T11:03:27.660Z,34.32
2022-08-19T11:06:07.949Z,34.45
2022-08-19T11:08:38.776Z,34.54
2022-08-19T11:11:08.633Z,34.58
2022-08-19T11:13:39.907Z,34.56
2022-08-19T11:16:15.117Z,34.52
2022-08-19T11:18:46.596Z,34.60
2022-08-19T11:21:18.488Z,34.61
2022-08-19T11:23:48.593Z,34.50
2022-08-19T11:26:16.907Z,34.45
2022-08-19T11:28:45.998Z,34.46
2022-08-19T11:31:17.182Z,34.48
2022-08-19T11:33:47.841Z,34.52
2022-08-19T11:36:17.429Z,34.64
2022-08-19T11:38:50.159Z,34.72
2022-08-19T11:41:20.273Z,34.83
2022-08-19T11:43:48.423Z,34.94
2022-08-19T11:46:17.755Z,35.01
2022-08-19T11:48:45.815Z,35.03
2022-08-19T11:51:18.396Z,35.12
2022-08-19T11:53:47.370Z,35.21
2022-08-19T11:56:15.552Z,35.21
2022-08-19T11:58:43.538Z,35.18
2022-08-19T12:01:17.189Z,35.30
2022-08-19T12:03:48.342Z,35.34
2022-08-19T12:06:20.628Z,35.36
2022-08-19T12:08:49.041Z,35.42
2022-08-19T12:11:17.245Z,35.46
2022-08-19T12:13:47.243Z,35.55
2022-08-19T12:16:19.363Z,35.67
2022-08-19T12:18:48.048Z,35.58
2022-08-19T12:21:18.257Z,35.54
2022-08-19T12:23:46.500Z,35.53
2022-08-19T12:26:14.502Z,35.35
2022-08-19T12:28:42.626Z,35.26
2022-08-19T12:31:14.924Z,35.12
2022-08-19T12:33:44.389Z,34.87
2022-08-19T12:36:14.475Z,34.67
2022-08-19T12:38:42.920Z,34.51
2022-08-19T12:41:13.810Z,34.38
2022-08-19T12:43:42.895Z,34.24
2022-08-19T12:46:12.073Z,34.11
2022-08-19T12:48:43.748Z,34.02
2022-08-19T12:51:14.531Z,33.94
2022-08-19T12:53:43.401Z,33.88
2022-08-19T12:56:15.314Z,33.83
2022-08-19T12:58:50.441Z,33.77
2022-08-19T13:01:22.789Z,33.70
2022-08-19T13:03:53.574Z,33.62
2022-08-19T13:06:22.246Z,33.57
2022-08-19T13:08:50.853Z,33.51
2022-08-19T13:11:21.992Z,33.47
2022-08-19T13:13:52.209Z,33.42
2022-08-19T13:16:21.528Z,33.37
2022-08-19T13:18:53.043Z,33.34
2022-08-19T13:21:24.385Z,33.28
2022-08-19T13:23:53.922Z,33.21
2022-08-19T13:26:22.941Z,33.19
2022-08-19T13:29:10.264Z,33.16
2022-08-19T13:32:00.813Z,33.12
2022-08-19T13:34:36.039Z,33.07
2022-08-19T13:37:05.407Z,33.05
2022-08-19T13:39:34.986Z,33.02
2022-08-19T13:42:05.357Z,33.00
2022-08-19T13:44:33.409Z,32.99
2022-08-19T13:47:07.944Z,32.96
2022-08-19T13:49:37.492Z,32.96
2022-08-19T13:52:06.675Z,32.94
2022-08-19T13:54:34.852Z,32.91
2022-08-19T13:57:02.952Z,32.90
2022-08-19T13:59:30.953Z,32.88
2022-08-19T14:02:00.595Z,32.86
2022-08-19T14:04:28.736Z,32.85
2022-08-19T14:06:56.760Z,32.83
2022-08-19T14:09:24.895Z,32.79
2022-08-19T14:11:52.921Z,32.74
2022-08-19T14:14:20.974Z,32.72
2022-08-19T14:16:50.263Z,32.72
2022-08-19T14:19:18.203Z,32.74
2022-08-19T14:21:46.123Z,32.73
2022-08-19T14:24:14.561Z,32.73
2022-08-19T14:26:42.623Z,32.71
2022-08-19T14:29:11.301Z,32.69
2022-08-19T14:31:41.683Z,32.67
2022-08-19T14:34:11.217Z,32.64
2022-08-19T14:36:39.475Z,32.60
2022-08-19T14:39:07.511Z,32.58
2022-08-19T14:41:35.670Z,32.57
2022-08-19T14:44:03.880Z,32.57
2022-08-19T14:46:32.279Z,32.56
2022-08-19T14:49:00.700Z,32.55
2022-08-19T14:51:29.197Z,32.53
2022-08-19T14:53:57.247Z,32.49
2022-08-19T14:56:30.178Z,32.45
2022-08-19T14:59:02.093Z,32.41
2022-08-19T15:01:30.273Z,32.38
2022-08-19T15:03:58.401Z,32.38
2022-08-19T15:06:27.055Z,32.36
2022-08-19T15:08:55.425Z,32.33
2022-08-19T15:11:28.830Z,32.32
2022-08-19T15:13:57.788Z,32.29
2022-08-19T15:16:27.309Z,32.28
2022-08-19T15:19:00.060Z,32.23
2022-08-19T15:21:29.744Z,32.17
2022-08-19T15:23:59.749Z,32.12
2022-08-19T15:26:32.240Z,32.05
2022-08-19T15:29:02.113Z,31.99
2022-08-19T15:31:33.103Z,31.94
2022-08-19T15:34:01.176Z,31.94
2022-08-19T15:36:29.938Z,32.10
2022-08-19T15:38:59.159Z,32.26
2022-08-19T15:41:30.830Z,32.45
2022-08-19T15:44:04.628Z,32.58
2022-08-19T15:46:34.572Z,32.55
2022-08-19T15:49:03.132Z,32.48
2022-08-19T15:51:35.469Z,32.41
2022-08-19T15:54:06.175Z,32.33
2022-08-19T15:56:57.638Z,32.24
2022-08-19T15:59:47.806Z,32.21
2022-08-19T16:02:36.962Z,32.23
2022-08-19T16:05:27.758Z,32.14
2022-08-19T16:07:57.330Z,32.00
2022-08-19T16:10:28.281Z,31.87
2022-08-19T16:12:58.653Z,31.73
2022-08-19T16:15:30.526Z,31.58
2022-08-19T16:18:02.328Z,31.44
2022-08-19T16:20:30.961Z,31.26
2022-08-19T16:22:59.626Z,31.10
2022-08-19T16:25:30.138Z,30.95
2022-08-19T16:28:07.231Z,30.80
2022-08-19T16:30:38.940Z,30.66
2022-08-19T16:33:08.089Z,30.51
2022-08-19T16:35:36.891Z,30.36
2022-08-19T16:38:07.053Z,30.23
2022-08-19T16:40:35.667Z,30.10
2022-08-19T16:43:04.144Z,29.97
2022-08-19T16:45:32.164Z,29.83
2022-08-19T16:48:00.252Z,29.69
2022-08-19T16:50:47.819Z,29.56
2022-08-19T16:53:19.592Z,29.43
2022-08-19T16:55:53.527Z,29.33
2022-08-19T16:58:29.773Z,29.21
2022-08-19T17:01:03.727Z,29.09
2022-08-19T17:03:35.805Z,28.96
2022-08-19T17:06:18.413Z,28.84
2022-08-19T17:08:52.514Z,28.70
2022-08-19T17:11:22.497Z,28.57
2022-08-19T17:13:51.285Z,28.45
2022-08-19T17:16:25.086Z,28.34
2022-08-19T17:18:55.568Z,28.23
2022-08-19T17:21:28.132Z,28.12
2022-08-19T17:23:57.236Z,28.03
2022-08-19T17:26:26.519Z,27.94
2022-08-19T17:28:56.819Z,27.86
2022-08-19T17:31:27.295Z,27.76
2022-08-19T17:33:56.249Z,27.66
2022-08-19T17:36:27.300Z,27.56
2022-08-19T17:38:58.100Z,27.46
2022-08-19T17:41:28.023Z,27.36
2022-08-19T17:43:56.684Z,27.26
2022-08-19T17:46:24.813Z,27.16
2022-08-19T17:48:57.694Z,27.07
2022-08-19T17:51:40.964Z,26.96
2022-08-19T17:54:15.342Z,26.87
2022-08-19T17:56:44.814Z,26.79
2022-08-19T17:59:14.755Z,26.71
2022-08-19T18:01:53.873Z,26.62
2022-08-19T18:04:25.777Z,26.53
2022-08-19T18:06:55.724Z,26.43
2022-08-19T18:09:42.704Z,26.33
2022-08-19T18:12:14.103Z,26.23
2022-08-19T18:14:42.259Z,26.13
2022-08-19T18:17:15.299Z,26.06
2022-08-19T18:19:44.478Z,25.98
2022-08-19T18:22:40.820Z,25.90
2022-08-19T18:25:24.554Z,25.82
2022-08-19T18:27:59.917Z,25.75
2022-08-19T18:30:36.359Z,25.68
2022-08-19T18:33:14.306Z,25.62
2022-08-19T18:35:48.841Z,25.55
2022-08-19T18:38:37.336Z,25.48
2022-08-19T18:41:24.365Z,25.40
2022-08-19T18:44:10.955Z,25.34
2022-08-19T18:46:57.586Z,25.27
2022-08-19T18:49:29.849Z,25.21
2022-08-19T18:51:58.821Z,25.14
2022-08-19T18:54:30.379Z,25.09
2022-08-19T18:56:58.613Z,25.03
2022-08-19T18:59:28.884Z,24.99
2022-08-19T19:01:59.036Z,24.93
2022-08-19T19:04:31.508Z,24.88
2022-08-19T19:07:00.308Z,24.81
2022-08-19T19:09:28.513Z,24.76
2022-08-19T19:12:00.547Z,24.73
2022-08-19T19:14:49.101Z,24.70
2022-08-19T19:17:17.759Z,24.66
2022-08-19T19:19:45.906Z,24.63
2022-08-19T19:22:19.856Z,24.59
2022-08-19T19:24:48.369Z,24.56
2022-08-19T19:27:20.673Z,24.54
2022-08-19T19:29:52.269Z,24.49
2022-08-19T19:32:24.931Z,24.44
2022-08-19T19:34:53.357Z,24.40
2022-08-19T19:37:22.696Z,24.34
2022-08-19T19:39:50.855Z,24.27
2022-08-19T19:42:22.951Z,24.20
2022-08-19T19:44:55.425Z,24.12
2022-08-19T19:47:24.624Z,24.06
2022-08-19T19:50:14.918Z,23.99
2022-08-19T19:52:48.504Z,23.92
2022-08-19T19:55:20.758Z,23.86
2022-08-19T19:57:49.283Z,23.79
2022-08-19T20:00:19.180Z,23.72
2022-08-19T20:02:50.473Z,23.63
2022-08-19T20:05:21.604Z,23.56
2022-08-19T20:08:10.557Z,23.51
2022-08-19T20:10:41.021Z,23.45
2022-08-19T20:13:10.771Z,23.41
2022-08-19T20:15:43.487Z,23.33
2022-08-19T20:18:14.655Z,23.26
2022-08-19T20:20:45.189Z,23.19
2022-08-19T20:23:13.566Z,23.13
2022-08-19T20:25:41.985Z,23.04
2022-08-19T20:28:12.516Z,22.98
2022-08-19T20:30:47.975Z,22.92
2022-08-19T20:33:16.360Z,22.87
2022-08-19T20:35:45.684Z,22.83
2022-08-19T20:38:14.195Z,22.79
2022-08-19T20:40:42.267Z,22.77
2022-08-19T20:43:13.457Z,22.74
2022-08-19T20:45:41.544Z,22.72
2022-08-19T20:48:12.423Z,22.66
2022-08-19T20:50:41.067Z,22.62
2022-08-19T20:53:18.431Z,22.57
2022-08-19T20:55:51.932Z,22.52
2022-08-19T20:58:22.922Z,22.49
2022-08-19T21:00:54.234Z,22.44
2022-08-19T21:03:24.700Z,22.39
2022-08-19T21:05:53.692Z,22.34
2022-08-19T21:08:23.001Z,22.31
2022-08-19T21:10:52.633Z,22.28
2022-08-19T21:13:22.072Z,22.25
2022-08-19T21:15:51.535Z,22.23
2022-08-19T21:18:22.665Z,22.19
2022-08-19T21:20:51.386Z,22.16
2022-08-19T21:23:23.246Z,22.12
2022-08-19T21:25:56.109Z,22.08
2022-08-19T21:28:34.290Z,22.05
2022-08-19T21:31:06.818Z,22.02
2022-08-19T21:33:34.839Z,21.98
2022-08-19T21:36:04.363Z,21.91
2022-08-19T21:38:32.882Z,21.87
2022-08-19T21:41:05.884Z,21.83
2022-08-19T21:43:36.704Z,21.79
2022-08-19T21:46:06.221Z,21.75
2022-08-19T21:48:34.451Z,21.70
2022-08-19T21:51:02.571Z,21.66
2022-08-19T21:53:34.318Z,21.63
2022-08-19T21:56:07.012Z,21.61
2022-08-19T21:58:39.218Z,21.59
2022-08-19T22:01:08.291Z,21.57
2022-08-19T22:03:37.897Z,21.53
2022-08-19T22:06:07.383Z,21.50
2022-08-19T22:08:36.320Z,21.48
2022-08-19T22:11:04.745Z,21.44
2022-08-19T22:13:40.530Z,21.42
2022-08-19T22:16:10.217Z,21.40
2022-08-19T22:18:38.248Z,21.39
2022-08-19T22:21:11.203Z,21.37
2022-08-19T22:23:41.859Z,21.33
2022-08-19T22:26:11.616Z,21.29
2022-08-19T22:28:40.536Z,21.24
2022-08-19T22:31:10.231Z,21.20
2022-08-19T22:33:39.300Z,21.14
2022-08-19T22:36:08.300Z,21.10
2022-08-19T22:38:38.507Z,21.09
2022-08-19T22:41:08.036Z,21.07
2022-08-19T22:43:37.592Z,21.07
2022-08-19T22:46:15.108Z,21.06
2022-08-19T22:48:47.942Z,21.02
2022-08-19T22:51:42.566Z,20.95
2022-08-19T22:54:10.596Z,20.90
2022-08-19T22:56:38.598Z,20.87
2022-08-19T22:59:08.678Z,20.82
2022-08-19T23:01:37.261Z,20.77
2022-08-19T23:04:05.629Z,20.75
2022-08-19T23:06:36.349Z,20.72
2022-08-19T23:09:08.786Z,20.68
2022-08-19T23:11:41.766Z,20.64
2022-08-19T23:14:12.804Z,20.62
2022-08-19T23:16:42.129Z,20.60
2022-08-19T23:19:10.652Z,20.57
2022-08-19T23:21:40.315Z,20.56
2022-08-19T23:24:09.644Z,20.55
2022-08-19T23:26:38.887Z,20.53
2022-08-19T23:29:25.875Z,20.52
2022-08-19T23:31:53.935Z,20.51
2022-08-19T23:34:23.066Z,20.49
2022-08-19T23:36:51.097Z,20.48
2022-08-19T23:39:19.584Z,20.45
2022-08-19T23:41:47.708Z,20.45
2022-08-19T23:44:15.823Z,20.45
2022-08-19T23:46:54.991Z,20.46
2022-08-19T23:49:25.472Z,20.48
2022-08-19T23:51:55.887Z,20.47
2022-08-19T23:54:27.514Z,20.45
2022-08-19T23:57:13.181Z,20.46
2022-08-19T23:59:45.562Z,20.47
